sensor_id;sensor_type;location;lat;lon;timestamp;P1;durP1;ratioP1;P2;durP2;ratioP2
69244;SDS011;56357;52.304;4.870;2023-07-30T00:02:22;8.60;;;2.08;;
69244;SDS011;56357;52.304;4.870;2023-07-30T00:04:48;8.60;;;2.00;;
69244;SDS011;56357;52.304;4.870;2023-07-30T00:07:15;7.82;;;1.63;;
69244;SDS011;56357;52.304;4.870;2023-07-30T00:09:41;9.48;;;2.05;;
69244;SDS011;56357;52.304;4.870;2023-07-30T00:12:08;10.50;;;2.08;;
69244;SDS011;56357;52.304;4.870;2023-07-30T00:14:35;9.30;;;2.38;;
69244;SDS011;56357;52.304;4.870;2023-07-30T00:17:02;10.88;;;2.42;;
69244;SDS011;56357;52.304;4.870;2023-07-30T00:19:29;8.68;;;2.03;;
69244;SDS011;56357;52.304;4.870;2023-07-30T00:21:55;8.10;;;2.20;;
69244;SDS011;56357;52.304;4.870;2023-07-30T00:24:22;8.25;;;1.80;;
69244;SDS011;56357;52.304;4.870;2023-07-30T00:26:48;8.27;;;1.88;;
69244;SDS011;56357;52.304;4.870;2023-07-30T00:29:14;7.88;;;1.75;;
69244;SDS011;56357;52.304;4.870;2023-07-30T00:31:41;11.25;;;2.30;;
69244;SDS011;56357;52.304;4.870;2023-07-30T00:34:07;10.80;;;2.17;;
69244;SDS011;56357;52.304;4.870;2023-07-30T00:36:34;11.52;;;2.60;;
69244;SDS011;56357;52.304;4.870;2023-07-30T00:39:00;11.05;;;2.25;;
69244;SDS011;56357;52.304;4.870;2023-07-30T00:41:27;12.32;;;2.38;;
69244;SDS011;56357;52.304;4.870;2023-07-30T00:43:53;9.65;;;1.90;;
69244;SDS011;56357;52.304;4.870;2023-07-30T00:46:19;9.40;;;1.70;;
69244;SDS011;56357;52.304;4.870;2023-07-30T00:48:46;11.05;;;2.67;;
69244;SDS011;56357;52.304;4.870;2023-07-30T00:51:13;9.55;;;2.10;;
69244;SDS011;56357;52.304;4.870;2023-07-30T00:53:42;11.88;;;2.22;;
69244;SDS011;56357;52.304;4.870;2023-07-30T00:56:09;8.00;;;2.20;;
69244;SDS011;56357;52.304;4.870;2023-07-30T00:58:35;9.88;;;1.98;;
69244;SDS011;56357;52.304;4.870;2023-07-30T01:01:02;10.57;;;2.17;;
69244;SDS011;56357;52.304;4.870;2023-07-30T01:03:28;12.23;;;2.30;;
69244;SDS011;56357;52.304;4.870;2023-07-30T01:05:55;8.57;;;2.50;;
69244;SDS011;56357;52.304;4.870;2023-07-30T01:08:22;7.75;;;2.08;;
69244;SDS011;56357;52.304;4.870;2023-07-30T01:10:48;8.43;;;1.92;;
69244;SDS011;56357;52.304;4.870;2023-07-30T01:13:16;10.13;;;2.50;;
69244;SDS011;56357;52.304;4.870;2023-07-30T01:15:43;10.57;;;2.17;;
69244;SDS011;56357;52.304;4.870;2023-07-30T01:18:10;8.88;;;2.00;;
69244;SDS011;56357;52.304;4.870;2023-07-30T01:20:37;8.25;;;1.73;;
69244;SDS011;56357;52.304;4.870;2023-07-30T01:23:03;12.52;;;2.22;;
69244;SDS011;56357;52.304;4.870;2023-07-30T01:25:30;10.05;;;2.30;;
69244;SDS011;56357;52.304;4.870;2023-07-30T01:28:01;10.15;;;2.03;;
69244;SDS011;56357;52.304;4.870;2023-07-30T01:30:38;8.30;;;2.38;;
69244;SDS011;56357;52.304;4.870;2023-07-30T01:33:08;12.15;;;2.13;;
69244;SDS011;56357;52.304;4.870;2023-07-30T01:35:37;8.85;;;2.13;;
69244;SDS011;56357;52.304;4.870;2023-07-30T01:38:04;7.50;;;1.98;;
69244;SDS011;56357;52.304;4.870;2023-07-30T01:40:32;13.75;;;2.40;;
69244;SDS011;56357;52.304;4.870;2023-07-30T01:42:59;10.45;;;2.25;;
69244;SDS011;56357;52.304;4.870;2023-07-30T01:45:25;10.77;;;2.10;;
69244;SDS011;56357;52.304;4.870;2023-07-30T01:47:52;9.18;;;2.42;;
69244;SDS011;56357;52.304;4.870;2023-07-30T01:50:18;11.05;;;2.28;;
69244;SDS011;56357;52.304;4.870;2023-07-30T01:52:45;6.30;;;1.90;;
69244;SDS011;56357;52.304;4.870;2023-07-30T01:55:12;8.73;;;1.92;;
69244;SDS011;56357;52.304;4.870;2023-07-30T01:57:38;9.23;;;2.33;;
69244;SDS011;56357;52.304;4.870;2023-07-30T02:00:05;10.35;;;2.33;;
69244;SDS011;56357;52.304;4.870;2023-07-30T02:02:32;10.57;;;2.30;;
69244;SDS011;56357;52.304;4.870;2023-07-30T02:05:00;7.72;;;2.10;;
69244;SDS011;56357;52.304;4.870;2023-07-30T02:07:27;10.27;;;2.00;;
69244;SDS011;56357;52.304;4.870;2023-07-30T02:09:53;8.82;;;2.10;;
69244;SDS011;56357;52.304;4.870;2023-07-30T02:12:20;10.20;;;2.08;;
69244;SDS011;56357;52.304;4.870;2023-07-30T02:14:46;9.63;;;2.63;;
69244;SDS011;56357;52.304;4.870;2023-07-30T02:17:13;8.07;;;1.98;;
69244;SDS011;56357;52.304;4.870;2023-07-30T02:19:39;9.30;;;2.30;;
69244;SDS011;56357;52.304;4.870;2023-07-30T02:22:05;10.18;;;1.83;;
69244;SDS011;56357;52.304;4.870;2023-07-30T02:24:32;8.93;;;2.50;;
69244;SDS011;56357;52.304;4.870;2023-07-30T02:26:58;8.93;;;2.17;;
69244;SDS011;56357;52.304;4.870;2023-07-30T02:29:25;8.10;;;1.70;;
69244;SDS011;56357;52.304;4.870;2023-07-30T02:31:51;11.07;;;2.00;;
69244;SDS011;56357;52.304;4.870;2023-07-30T02:34:18;10.00;;;2.03;;
69244;SDS011;56357;52.304;4.870;2023-07-30T02:36:44;9.93;;;2.10;;
69244;SDS011;56357;52.304;4.870;2023-07-30T02:39:11;9.25;;;1.92;;
69244;SDS011;56357;52.304;4.870;2023-07-30T02:41:37;9.45;;;1.70;;
69244;SDS011;56357;52.304;4.870;2023-07-30T02:44:04;12.30;;;2.03;;
69244;SDS011;56357;52.304;4.870;2023-07-30T02:46:30;7.47;;;1.83;;
69244;SDS011;56357;52.304;4.870;2023-07-30T02:48:57;9.00;;;1.88;;
69244;SDS011;56357;52.304;4.870;2023-07-30T02:51:23;9.30;;;1.98;;
69244;SDS011;56357;52.304;4.870;2023-07-30T02:53:51;8.40;;;2.20;;
69244;SDS011;56357;52.304;4.870;2023-07-30T02:56:18;10.00;;;1.92;;
69244;SDS011;56357;52.304;4.870;2023-07-30T02:58:45;10.88;;;2.25;;
69244;SDS011;56357;52.304;4.870;2023-07-30T03:01:11;12.27;;;2.03;;
69244;SDS011;56357;52.304;4.870;2023-07-30T03:03:38;12.02;;;2.65;;
69244;SDS011;56357;52.304;4.870;2023-07-30T03:06:04;9.32;;;1.83;;
69244;SDS011;56357;52.304;4.870;2023-07-30T03:08:31;12.98;;;2.10;;
69244;SDS011;56357;52.304;4.870;2023-07-30T03:10:58;8.93;;;2.08;;
69244;SDS011;56357;52.304;4.870;2023-07-30T03:13:25;10.38;;;1.88;;
69244;SDS011;56357;52.304;4.870;2023-07-30T03:15:52;9.75;;;1.90;;
69244;SDS011;56357;52.304;4.870;2023-07-30T03:18:19;7.82;;;1.70;;
69244;SDS011;56357;52.304;4.870;2023-07-30T03:20:45;7.25;;;1.92;;
69244;SDS011;56357;52.304;4.870;2023-07-30T03:23:11;7.90;;;1.90;;
69244;SDS011;56357;52.304;4.870;2023-07-30T03:25:38;8.93;;;2.03;;
69244;SDS011;56357;52.304;4.870;2023-07-30T03:28:05;9.18;;;2.20;;
69244;SDS011;56357;52.304;4.870;2023-07-30T03:30:31;8.38;;;1.98;;
69244;SDS011;56357;52.304;4.870;2023-07-30T03:32:57;8.18;;;1.85;;
69244;SDS011;56357;52.304;4.870;2023-07-30T03:35:24;10.90;;;2.10;;
69244;SDS011;56357;52.304;4.870;2023-07-30T03:37:51;10.50;;;1.92;;
69244;SDS011;56357;52.304;4.870;2023-07-30T03:40:17;7.60;;;1.70;;
69244;SDS011;56357;52.304;4.870;2023-07-30T03:42:44;7.65;;;1.35;;
69244;SDS011;56357;52.304;4.870;2023-07-30T03:45:10;7.78;;;1.67;;
69244;SDS011;56357;52.304;4.870;2023-07-30T03:47:37;8.32;;;1.73;;
69244;SDS011;56357;52.304;4.870;2023-07-30T03:50:03;6.68;;;1.38;;
69244;SDS011;56357;52.304;4.870;2023-07-30T03:52:30;8.13;;;1.75;;
69244;SDS011;56357;52.304;4.870;2023-07-30T03:54:56;8.68;;;1.98;;
69244;SDS011;56357;52.304;4.870;2023-07-30T03:57:23;10.32;;;1.50;;
69244;SDS011;56357;52.304;4.870;2023-07-30T03:59:49;6.53;;;1.30;;
69244;SDS011;56357;52.304;4.870;2023-07-30T04:02:16;11.55;;;2.05;;
69244;SDS011;56357;52.304;4.870;2023-07-30T04:04:43;8.15;;;1.88;;
69244;SDS011;56357;52.304;4.870;2023-07-30T04:07:10;7.22;;;1.20;;
69244;SDS011;56357;52.304;4.870;2023-07-30T04:09:36;6.75;;;1.35;;
69244;SDS011;56357;52.304;4.870;2023-07-30T04:12:03;7.20;;;1.45;;
69244;SDS011;56357;52.304;4.870;2023-07-30T04:14:29;7.25;;;1.73;;
69244;SDS011;56357;52.304;4.870;2023-07-30T04:16:56;6.18;;;1.23;;
69244;SDS011;56357;52.304;4.870;2023-07-30T04:19:22;7.60;;;1.42;;
69244;SDS011;56357;52.304;4.870;2023-07-30T04:21:49;6.75;;;1.50;;
69244;SDS011;56357;52.304;4.870;2023-07-30T04:24:15;8.10;;;2.40;;
69244;SDS011;56357;52.304;4.870;2023-07-30T04:26:42;8.23;;;1.45;;
69244;SDS011;56357;52.304;4.870;2023-07-30T04:29:08;7.15;;;1.58;;
69244;SDS011;56357;52.304;4.870;2023-07-30T04:31:35;6.47;;;1.58;;
69244;SDS011;56357;52.304;4.870;2023-07-30T04:34:01;10.88;;;1.88;;
69244;SDS011;56357;52.304;4.870;2023-07-30T04:36:28;6.00;;;1.25;;
69244;SDS011;56357;52.304;4.870;2023-07-30T04:38:54;7.30;;;1.40;;
69244;SDS011;56357;52.304;4.870;2023-07-30T04:41:21;7.68;;;1.80;;
69244;SDS011;56357;52.304;4.870;2023-07-30T04:43:47;8.40;;;1.45;;
69244;SDS011;56357;52.304;4.870;2023-07-30T04:46:13;6.40;;;1.45;;
69244;SDS011;56357;52.304;4.870;2023-07-30T04:48:40;5.82;;;1.63;;
69244;SDS011;56357;52.304;4.870;2023-07-30T04:51:07;6.47;;;1.20;;
69244;SDS011;56357;52.304;4.870;2023-07-30T04:53:33;8.85;;;1.42;;
69244;SDS011;56357;52.304;4.870;2023-07-30T04:55:59;9.35;;;1.58;;
69244;SDS011;56357;52.304;4.870;2023-07-30T04:58:26;10.07;;;1.13;;
69244;SDS011;56357;52.304;4.870;2023-07-30T05:00:53;5.72;;;1.60;;
69244;SDS011;56357;52.304;4.870;2023-07-30T05:03:19;6.40;;;1.45;;
69244;SDS011;56357;52.304;4.870;2023-07-30T05:05:46;9.65;;;1.30;;
69244;SDS011;56357;52.304;4.870;2023-07-30T05:08:12;7.32;;;1.27;;
69244;SDS011;56357;52.304;4.870;2023-07-30T05:10:39;6.88;;;1.10;;
69244;SDS011;56357;52.304;4.870;2023-07-30T05:13:05;6.95;;;1.10;;
69244;SDS011;56357;52.304;4.870;2023-07-30T05:15:32;6.45;;;1.00;;
69244;SDS011;56357;52.304;4.870;2023-07-30T05:17:58;7.53;;;1.20;;
69244;SDS011;56357;52.304;4.870;2023-07-30T05:20:24;5.65;;;1.02;;
69244;SDS011;56357;52.304;4.870;2023-07-30T05:22:51;7.75;;;1.55;;
69244;SDS011;56357;52.304;4.870;2023-07-30T05:25:17;4.65;;;1.00;;
69244;SDS011;56357;52.304;4.870;2023-07-30T05:27:44;5.75;;;1.13;;
69244;SDS011;56357;52.304;4.870;2023-07-30T05:30:10;5.90;;;1.00;;
69244;SDS011;56357;52.304;4.870;2023-07-30T05:32:37;4.70;;;1.20;;
69244;SDS011;56357;52.304;4.870;2023-07-30T05:35:03;10.35;;;1.60;;
69244;SDS011;56357;52.304;4.870;2023-07-30T05:37:30;5.78;;;1.35;;
69244;SDS011;56357;52.304;4.870;2023-07-30T05:39:57;7.10;;;1.38;;
69244;SDS011;56357;52.304;4.870;2023-07-30T05:42:23;4.93;;;1.05;;
69244;SDS011;56357;52.304;4.870;2023-07-30T05:44:50;5.93;;;1.30;;
69244;SDS011;56357;52.304;4.870;2023-07-30T05:47:16;6.30;;;1.20;;
69244;SDS011;56357;52.304;4.870;2023-07-30T05:49:43;7.32;;;1.65;;
69244;SDS011;56357;52.304;4.870;2023-07-30T05:52:09;6.28;;;1.08;;
69244;SDS011;56357;52.304;4.870;2023-07-30T05:54:36;7.95;;;1.20;;
69244;SDS011;56357;52.304;4.870;2023-07-30T05:57:02;7.95;;;1.02;;
69244;SDS011;56357;52.304;4.870;2023-07-30T05:59:29;7.28;;;1.40;;
69244;SDS011;56357;52.304;4.870;2023-07-30T06:01:55;4.50;;;0.82;;
69244;SDS011;56357;52.304;4.870;2023-07-30T06:04:23;6.68;;;1.10;;
69244;SDS011;56357;52.304;4.870;2023-07-30T06:06:49;6.00;;;1.20;;
69244;SDS011;56357;52.304;4.870;2023-07-30T06:09:15;5.82;;;1.10;;
69244;SDS011;56357;52.304;4.870;2023-07-30T06:11:42;5.50;;;1.30;;
69244;SDS011;56357;52.304;4.870;2023-07-30T06:14:08;4.85;;;1.10;;
69244;SDS011;56357;52.304;4.870;2023-07-30T06:16:35;5.97;;;1.20;;
69244;SDS011;56357;52.304;4.870;2023-07-30T06:19:01;7.40;;;1.50;;
69244;SDS011;56357;52.304;4.870;2023-07-30T06:21:28;5.75;;;1.02;;
69244;SDS011;56357;52.304;4.870;2023-07-30T06:23:54;4.78;;;0.95;;
69244;SDS011;56357;52.304;4.870;2023-07-30T06:26:21;5.57;;;1.00;;
69244;SDS011;56357;52.304;4.870;2023-07-30T06:28:47;6.43;;;1.35;;
69244;SDS011;56357;52.304;4.870;2023-07-30T06:31:13;6.80;;;1.33;;
69244;SDS011;56357;52.304;4.870;2023-07-30T06:33:40;10.05;;;1.60;;
69244;SDS011;56357;52.304;4.870;2023-07-30T06:36:06;7.18;;;1.20;;
69244;SDS011;56357;52.304;4.870;2023-07-30T06:38:33;7.95;;;1.52;;
69244;SDS011;56357;52.304;4.870;2023-07-30T06:41:00;5.72;;;1.33;;
69244;SDS011;56357;52.304;4.870;2023-07-30T06:43:26;5.63;;;1.13;;
69244;SDS011;56357;52.304;4.870;2023-07-30T06:45:53;7.20;;;1.15;;
69244;SDS011;56357;52.304;4.870;2023-07-30T06:48:20;7.47;;;1.13;;
69244;SDS011;56357;52.304;4.870;2023-07-30T06:50:46;4.32;;;1.10;;
69244;SDS011;56357;52.304;4.870;2023-07-30T06:53:13;5.93;;;1.30;;
69244;SDS011;56357;52.304;4.870;2023-07-30T06:55:39;6.88;;;1.17;;
69244;SDS011;56357;52.304;4.870;2023-07-30T06:58:05;8.95;;;1.48;;
69244;SDS011;56357;52.304;4.870;2023-07-30T07:00:32;9.65;;;1.35;;
69244;SDS011;56357;52.304;4.870;2023-07-30T07:02:58;8.85;;;1.48;;
69244;SDS011;56357;52.304;4.870;2023-07-30T07:05:25;8.23;;;1.70;;
69244;SDS011;56357;52.304;4.870;2023-07-30T07:07:51;7.53;;;1.45;;
69244;SDS011;56357;52.304;4.870;2023-07-30T07:10:18;5.68;;;1.05;;
69244;SDS011;56357;52.304;4.870;2023-07-30T07:12:44;5.10;;;1.10;;
69244;SDS011;56357;52.304;4.870;2023-07-30T07:15:12;6.90;;;1.20;;
69244;SDS011;56357;52.304;4.870;2023-07-30T07:17:39;5.80;;;1.10;;
69244;SDS011;56357;52.304;4.870;2023-07-30T07:20:06;9.07;;;2.10;;
69244;SDS011;56357;52.304;4.870;2023-07-30T07:22:33;8.05;;;1.33;;
69244;SDS011;56357;52.304;4.870;2023-07-30T07:25:00;7.28;;;1.40;;
69244;SDS011;56357;52.304;4.870;2023-07-30T07:27:26;8.32;;;1.33;;
69244;SDS011;56357;52.304;4.870;2023-07-30T07:29:53;5.90;;;0.93;;
69244;SDS011;56357;52.304;4.870;2023-07-30T07:32:20;6.05;;;1.27;;
69244;SDS011;56357;52.304;4.870;2023-07-30T07:34:47;5.20;;;1.38;;
69244;SDS011;56357;52.304;4.870;2023-07-30T07:37:14;7.00;;;1.50;;
69244;SDS011;56357;52.304;4.870;2023-07-30T07:39:43;7.50;;;1.27;;
69244;SDS011;56357;52.304;4.870;2023-07-30T07:42:10;7.22;;;1.30;;
69244;SDS011;56357;52.304;4.870;2023-07-30T07:44:36;6.38;;;1.10;;
69244;SDS011;56357;52.304;4.870;2023-07-30T07:47:03;7.53;;;1.45;;
69244;SDS011;56357;52.304;4.870;2023-07-30T07:49:30;9.30;;;1.23;;
69244;SDS011;56357;52.304;4.870;2023-07-30T07:51:56;8.38;;;1.70;;
69244;SDS011;56357;52.304;4.870;2023-07-30T07:54:23;6.22;;;1.30;;
69244;SDS011;56357;52.304;4.870;2023-07-30T07:56:49;5.55;;;1.40;;
69244;SDS011;56357;52.304;4.870;2023-07-30T07:59:15;5.60;;;1.20;;
69244;SDS011;56357;52.304;4.870;2023-07-30T08:01:42;7.07;;;1.20;;
69244;SDS011;56357;52.304;4.870;2023-07-30T08:04:08;7.07;;;1.40;;
69244;SDS011;56357;52.304;4.870;2023-07-30T08:06:35;8.55;;;1.30;;
69244;SDS011;56357;52.304;4.870;2023-07-30T08:09:01;8.57;;;1.50;;
69244;SDS011;56357;52.304;4.870;2023-07-30T08:11:28;7.57;;;1.40;;
69244;SDS011;56357;52.304;4.870;2023-07-30T08:13:54;6.47;;;1.40;;
69244;SDS011;56357;52.304;4.870;2023-07-30T08:16:22;6.40;;;1.30;;
69244;SDS011;56357;52.304;4.870;2023-07-30T08:18:48;6.75;;;1.30;;
69244;SDS011;56357;52.304;4.870;2023-07-30T08:21:15;7.15;;;1.48;;
69244;SDS011;56357;52.304;4.870;2023-07-30T08:23:42;6.50;;;1.10;;
69244;SDS011;56357;52.304;4.870;2023-07-30T08:26:09;6.13;;;1.13;;
69244;SDS011;56357;52.304;4.870;2023-07-30T08:28:35;5.60;;;1.00;;
69244;SDS011;56357;52.304;4.870;2023-07-30T08:31:02;7.38;;;1.20;;
69244;SDS011;56357;52.304;4.870;2023-07-30T08:33:28;6.40;;;1.40;;
69244;SDS011;56357;52.304;4.870;2023-07-30T08:35:55;6.95;;;1.63;;
69244;SDS011;56357;52.304;4.870;2023-07-30T08:38:23;5.43;;;1.10;;
69244;SDS011;56357;52.304;4.870;2023-07-30T08:40:50;5.93;;;1.30;;
69244;SDS011;56357;52.304;4.870;2023-07-30T08:43:19;6.05;;;1.40;;
69244;SDS011;56357;52.304;4.870;2023-07-30T08:45:45;5.72;;;1.15;;
69244;SDS011;56357;52.304;4.870;2023-07-30T08:48:12;6.13;;;0.98;;
69244;SDS011;56357;52.304;4.870;2023-07-30T08:50:39;6.82;;;1.83;;
69244;SDS011;56357;52.304;4.870;2023-07-30T08:53:07;6.90;;;1.00;;
69244;SDS011;56357;52.304;4.870;2023-07-30T08:55:34;6.50;;;1.50;;
69244;SDS011;56357;52.304;4.870;2023-07-30T08:58:02;4.70;;;1.10;;
69244;SDS011;56357;52.304;4.870;2023-07-30T09:00:31;5.20;;;1.17;;
69244;SDS011;56357;52.304;4.870;2023-07-30T09:03:03;7.22;;;1.15;;
69244;SDS011;56357;52.304;4.870;2023-07-30T09:05:30;6.70;;;1.65;;
69244;SDS011;56357;52.304;4.870;2023-07-30T09:07:57;6.07;;;1.30;;
69244;SDS011;56357;52.304;4.870;2023-07-30T09:10:25;5.00;;;1.30;;
69244;SDS011;56357;52.304;4.870;2023-07-30T09:12:52;7.88;;;1.42;;
69244;SDS011;56357;52.304;4.870;2023-07-30T09:15:28;7.68;;;1.23;;
69244;SDS011;56357;52.304;4.870;2023-07-30T09:18:03;6.45;;;1.50;;
69244;SDS011;56357;52.304;4.870;2023-07-30T09:20:40;5.57;;;1.00;;
69244;SDS011;56357;52.304;4.870;2023-07-30T09:23:07;6.53;;;1.40;;
69244;SDS011;56357;52.304;4.870;2023-07-30T09:25:35;7.07;;;1.30;;
69244;SDS011;56357;52.304;4.870;2023-07-30T09:28:02;9.02;;;1.45;;
69244;SDS011;56357;52.304;4.870;2023-07-30T09:30:29;5.75;;;1.05;;
69244;SDS011;56357;52.304;4.870;2023-07-30T09:32:58;7.25;;;1.40;;
69244;SDS011;56357;52.304;4.870;2023-07-30T09:35:25;6.15;;;1.33;;
69244;SDS011;56357;52.304;4.870;2023-07-30T09:37:59;6.63;;;1.20;;
69244;SDS011;56357;52.304;4.870;2023-07-30T09:40:34;8.13;;;1.17;;
69244;SDS011;56357;52.304;4.870;2023-07-30T09:43:03;6.25;;;1.38;;
69244;SDS011;56357;52.304;4.870;2023-07-30T09:45:34;6.85;;;1.17;;
69244;SDS011;56357;52.304;4.870;2023-07-30T09:48:02;6.93;;;0.95;;
69244;SDS011;56357;52.304;4.870;2023-07-30T09:50:30;5.03;;;0.90;;
69244;SDS011;56357;52.304;4.870;2023-07-30T09:53:00;5.45;;;1.02;;
69244;SDS011;56357;52.304;4.870;2023-07-30T09:55:29;6.38;;;0.98;;
69244;SDS011;56357;52.304;4.870;2023-07-30T09:57:55;6.97;;;1.42;;
69244;SDS011;56357;52.304;4.870;2023-07-30T10:00:22;7.07;;;1.10;;
69244;SDS011;56357;52.304;4.870;2023-07-30T10:02:49;6.13;;;1.30;;
69244;SDS011;56357;52.304;4.870;2023-07-30T10:05:18;5.35;;;1.00;;
69244;SDS011;56357;52.304;4.870;2023-07-30T10:07:49;5.18;;;1.00;;
69244;SDS011;56357;52.304;4.870;2023-07-30T10:10:21;5.80;;;1.13;;
69244;SDS011;56357;52.304;4.870;2023-07-30T10:12:50;4.93;;;1.02;;
69244;SDS011;56357;52.304;4.870;2023-07-30T10:15:19;5.47;;;1.13;;
69244;SDS011;56357;52.304;4.870;2023-07-30T10:17:48;7.45;;;1.45;;
69244;SDS011;56357;52.304;4.870;2023-07-30T10:20:26;5.85;;;1.13;;
69244;SDS011;56357;52.304;4.870;2023-07-30T10:22:55;5.72;;;1.00;;
69244;SDS011;56357;52.304;4.870;2023-07-30T10:25:28;8.13;;;1.58;;
69244;SDS011;56357;52.304;4.870;2023-07-30T10:27:56;4.82;;;1.00;;
69244;SDS011;56357;52.304;4.870;2023-07-30T10:30:30;6.75;;;1.30;;
69244;SDS011;56357;52.304;4.870;2023-07-30T10:32:58;6.95;;;1.45;;
69244;SDS011;56357;52.304;4.870;2023-07-30T10:38:17;6.57;;;1.23;;
69244;SDS011;56357;52.304;4.870;2023-07-30T10:43:27;4.80;;;1.10;;
69244;SDS011;56357;52.304;4.870;2023-07-30T10:45:55;7.20;;;1.35;;
69244;SDS011;56357;52.304;4.870;2023-07-30T10:48:31;6.07;;;1.17;;
69244;SDS011;56357;52.304;4.870;2023-07-30T10:51:00;6.30;;;1.27;;
69244;SDS011;56357;52.304;4.870;2023-07-30T10:53:28;8.50;;;1.23;;
69244;SDS011;56357;52.304;4.870;2023-07-30T10:55:57;5.25;;;1.30;;
69244;SDS011;56357;52.304;4.870;2023-07-30T10:58:31;6.13;;;1.17;;
69244;SDS011;56357;52.304;4.870;2023-07-30T11:00:58;7.78;;;1.00;;
69244;SDS011;56357;52.304;4.870;2023-07-30T11:03:27;5.85;;;1.30;;
69244;SDS011;56357;52.304;4.870;2023-07-30T11:05:54;7.00;;;1.30;;
69244;SDS011;56357;52.304;4.870;2023-07-30T11:08:21;5.60;;;1.20;;
69244;SDS011;56357;52.304;4.870;2023-07-30T11:11:01;7.55;;;1.17;;
69244;SDS011;56357;52.304;4.870;2023-07-30T11:13:28;5.63;;;1.17;;
69244;SDS011;56357;52.304;4.870;2023-07-30T11:15:54;8.45;;;1.40;;
69244;SDS011;56357;52.304;4.870;2023-07-30T11:18:21;5.68;;;1.20;;
69244;SDS011;56357;52.304;4.870;2023-07-30T11:20:48;3.35;;;0.68;;
69244;SDS011;56357;52.304;4.870;2023-07-30T11:23:22;4.78;;;1.10;;
69244;SDS011;56357;52.304;4.870;2023-07-30T11:25:49;6.18;;;1.42;;
69244;SDS011;56357;52.304;4.870;2023-07-30T11:31:05;10.43;;;1.40;;
69244;SDS011;56357;52.304;4.870;2023-07-30T11:33:38;7.10;;;0.80;;
69244;SDS011;56357;52.304;4.870;2023-07-30T11:36:09;5.90;;;1.35;;
69244;SDS011;56357;52.304;4.870;2023-07-30T11:38:38;7.78;;;1.23;;
69244;SDS011;56357;52.304;4.870;2023-07-30T11:41:06;9.13;;;1.42;;
69244;SDS011;56357;52.304;4.870;2023-07-30T11:43:36;5.85;;;1.20;;
69244;SDS011;56357;52.304;4.870;2023-07-30T11:46:10;6.00;;;1.40;;
69244;SDS011;56357;52.304;4.870;2023-07-30T11:48:42;5.32;;;1.30;;
69244;SDS011;56357;52.304;4.870;2023-07-30T11:51:28;5.70;;;1.25;;
69244;SDS011;56357;52.304;4.870;2023-07-30T11:53:56;7.10;;;1.13;;
69244;SDS011;56357;52.304;4.870;2023-07-30T11:58:59;6.03;;;1.30;;
69244;SDS011;56357;52.304;4.870;2023-07-30T12:01:26;8.93;;;1.40;;
69244;SDS011;56357;52.304;4.870;2023-07-30T12:03:55;7.15;;;1.27;;
69244;SDS011;56357;52.304;4.870;2023-07-30T12:06:22;6.50;;;1.40;;
69244;SDS011;56357;52.304;4.870;2023-07-30T12:08:49;5.83;;;1.17;;
69244;SDS011;56357;52.304;4.870;2023-07-30T12:11:17;4.90;;;1.08;;
69244;SDS011;56357;52.304;4.870;2023-07-30T12:13:44;6.75;;;1.30;;
69244;SDS011;56357;52.304;4.870;2023-07-30T12:16:12;6.82;;;1.08;;
69244;SDS011;56357;52.304;4.870;2023-07-30T12:18:39;6.57;;;1.23;;
69244;SDS011;56357;52.304;4.870;2023-07-30T12:21:06;6.57;;;0.98;;
69244;SDS011;56357;52.304;4.870;2023-07-30T12:23:36;7.05;;;1.30;;
69244;SDS011;56357;52.304;4.870;2023-07-30T12:26:03;6.93;;;1.23;;
69244;SDS011;56357;52.304;4.870;2023-07-30T12:28:33;7.32;;;1.10;;
69244;SDS011;56357;52.304;4.870;2023-07-30T12:31:00;6.97;;;1.10;;
69244;SDS011;56357;52.304;4.870;2023-07-30T12:33:27;4.53;;;1.02;;
69244;SDS011;56357;52.304;4.870;2023-07-30T12:35:53;5.68;;;1.30;;
69244;SDS011;56357;52.304;4.870;2023-07-30T12:38:20;5.93;;;1.13;;
69244;SDS011;56357;52.304;4.870;2023-07-30T12:40:46;5.80;;;1.15;;
69244;SDS011;56357;52.304;4.870;2023-07-30T12:43:13;6.20;;;1.17;;
69244;SDS011;56357;52.304;4.870;2023-07-30T12:45:39;4.85;;;1.10;;
69244;SDS011;56357;52.304;4.870;2023-07-30T12:48:06;5.25;;;0.80;;
69244;SDS011;56357;52.304;4.870;2023-07-30T12:50:33;6.85;;;1.10;;
69244;SDS011;56357;52.304;4.870;2023-07-30T12:52:59;6.38;;;1.30;;
69244;SDS011;56357;52.304;4.870;2023-07-30T12:55:25;6.00;;;0.95;;
69244;SDS011;56357;52.304;4.870;2023-07-30T12:57:52;7.30;;;0.90;;
69244;SDS011;56357;52.304;4.870;2023-07-30T13:00:18;5.57;;;1.02;;
69244;SDS011;56357;52.304;4.870;2023-07-30T13:02:45;5.25;;;1.05;;
69244;SDS011;56357;52.304;4.870;2023-07-30T13:05:11;5.85;;;1.00;;
69244;SDS011;56357;52.304;4.870;2023-07-30T13:07:40;6.45;;;1.00;;
69244;SDS011;56357;52.304;4.870;2023-07-30T13:10:07;5.97;;;1.35;;
69244;SDS011;56357;52.304;4.870;2023-07-30T13:12:35;6.60;;;1.02;;
69244;SDS011;56357;52.304;4.870;2023-07-30T13:15:01;6.40;;;1.38;;
69244;SDS011;56357;52.304;4.870;2023-07-30T13:17:28;5.63;;;1.00;;
69244;SDS011;56357;52.304;4.870;2023-07-30T13:19:56;5.88;;;1.05;;
69244;SDS011;56357;52.304;4.870;2023-07-30T13:22:23;5.25;;;0.88;;
69244;SDS011;56357;52.304;4.870;2023-07-30T13:24:49;8.10;;;1.40;;
69244;SDS011;56357;52.304;4.870;2023-07-30T13:27:16;7.13;;;1.20;;
69244;SDS011;56357;52.304;4.870;2023-07-30T13:29:43;7.10;;;1.23;;
69244;SDS011;56357;52.304;4.870;2023-07-30T13:32:10;6.05;;;1.23;;
69244;SDS011;56357;52.304;4.870;2023-07-30T13:34:37;4.93;;;1.10;;
69244;SDS011;56357;52.304;4.870;2023-07-30T13:37:04;5.13;;;1.00;;
69244;SDS011;56357;52.304;4.870;2023-07-30T13:39:30;5.80;;;1.20;;
69244;SDS011;56357;52.304;4.870;2023-07-30T13:41:57;5.78;;;0.98;;
69244;SDS011;56357;52.304;4.870;2023-07-30T13:44:23;5.68;;;0.90;;
69244;SDS011;56357;52.304;4.870;2023-07-30T13:46:50;5.10;;;0.90;;
69244;SDS011;56357;52.304;4.870;2023-07-30T13:49:16;8.70;;;1.23;;
69244;SDS011;56357;52.304;4.870;2023-07-30T13:51:43;6.55;;;1.33;;
69244;SDS011;56357;52.304;4.870;2023-07-30T13:54:09;6.57;;;1.20;;
69244;SDS011;56357;52.304;4.870;2023-07-30T13:56:36;7.13;;;1.00;;
69244;SDS011;56357;52.304;4.870;2023-07-30T13:59:03;7.20;;;1.38;;
69244;SDS011;56357;52.304;4.870;2023-07-30T14:01:30;8.93;;;1.48;;
69244;SDS011;56357;52.304;4.870;2023-07-30T14:03:56;6.93;;;1.20;;
69244;SDS011;56357;52.304;4.870;2023-07-30T14:06:23;5.10;;;1.20;;
69244;SDS011;56357;52.304;4.870;2023-07-30T14:08:49;5.25;;;1.25;;
69244;SDS011;56357;52.304;4.870;2023-07-30T14:11:16;6.30;;;1.27;;
69244;SDS011;56357;52.304;4.870;2023-07-30T14:13:42;4.65;;;1.00;;
69244;SDS011;56357;52.304;4.870;2023-07-30T14:16:09;6.70;;;1.38;;
69244;SDS011;56357;52.304;4.870;2023-07-30T14:18:35;5.75;;;1.00;;
69244;SDS011;56357;52.304;4.870;2023-07-30T14:21:03;7.38;;;1.10;;
69244;SDS011;56357;52.304;4.870;2023-07-30T14:23:29;4.93;;;1.10;;
69244;SDS011;56357;52.304;4.870;2023-07-30T14:25:56;8.88;;;1.63;;
69244;SDS011;56357;52.304;4.870;2023-07-30T14:28:23;6.13;;;1.25;;
69244;SDS011;56357;52.304;4.870;2023-07-30T14:30:49;7.15;;;1.50;;
69244;SDS011;56357;52.304;4.870;2023-07-30T14:33:15;7.45;;;1.13;;
69244;SDS011;56357;52.304;4.870;2023-07-30T14:35:42;6.15;;;1.27;;
69244;SDS011;56357;52.304;4.870;2023-07-30T14:38:08;6.75;;;1.13;;
69244;SDS011;56357;52.304;4.870;2023-07-30T14:40:35;9.13;;;1.33;;
69244;SDS011;56357;52.304;4.870;2023-07-30T14:43:02;7.95;;;1.45;;
69244;SDS011;56357;52.304;4.870;2023-07-30T14:45:28;7.95;;;1.40;;
69244;SDS011;56357;52.304;4.870;2023-07-30T14:47:55;8.05;;;1.30;;
69244;SDS011;56357;52.304;4.870;2023-07-30T14:50:22;7.47;;;1.50;;
69244;SDS011;56357;52.304;4.870;2023-07-30T14:52:48;6.20;;;1.42;;
69244;SDS011;56357;52.304;4.870;2023-07-30T14:55:14;6.53;;;1.48;;
69244;SDS011;56357;52.304;4.870;2023-07-30T14:57:41;7.13;;;1.20;;